Time;durP1;ratioP1;P1;durP2;ratioP2;P2;SDS_P1;SDS_P2;PMS_P1;PMS_P2;Temp;Humidity;BMP_temperature;BMP_pressure;BME280_temperature;BME280_humidity;BME280_pressure;Samples;Min_cycle;Max_cycle;Signal;HPM_P1;HPM_P2
2022/12/20 00:00:50;;;;;;;2.27;1.10;;;;;;;;;;4991511;28;20050;-69
2022/12/20 00:03:16;;;;;;;7.45;1.63;;;;;;;;;;4988498;28;20257;-70
2022/12/20 00:05:42;;;;;;;6.90;2.15;;;;;;;;;;4991099;28;20045;-68
2022/12/20 00:08:07;;;;;;;3.63;1.25;;;;;;;;;;4989940;28;20026;-70
2022/12/20 00:10:36;;;;;;;3.40;1.60;;;;;;;;;;4990887;28;20557;-69
2022/12/20 00:13:02;;;;;;;2.20;1.25;;;;;;;;;;4991015;28;20027;-68
2022/12/20 00:15:27;;;;;;;5.47;1.67;;;;;;;;;;4991099;28;20018;-69
2022/12/20 00:17:52;;;;;;;7.30;1.67;;;;;;;;;;4991343;28;20130;-69
2022/12/20 00:20:17;;;;;;;5.23;1.80;;;;;;;;;;4989820;28;20371;-70
2022/12/20 00:22:42;;;;;;;2.93;1.57;;;;;;;;;;4990707;28;20335;-68
2022/12/20 00:25:07;;;;;;;4.33;1.87;;;;;;;;;;4990734;28;20272;-69
2022/12/20 00:27:33;;;;;;;3.17;1.25;;;;;;;;;;4991150;28;20258;-69
2022/12/20 00:29:58;;;;;;;3.43;1.67;;;;;;;;;;4989275;28;20085;-70
2022/12/20 00:32:23;;;;;;;3.37;1.67;;;;;;;;;;4990797;28;20630;-69
2022/12/20 00:34:48;;;;;;;3.57;1.30;;;;;;;;;;4990196;28;20343;-67
2022/12/20 00:37:14;;;;;;;1.37;0.90;;;;;;;;;;4990708;28;20291;-69
2022/12/20 00:39:39;;;;;;;2.47;1.25;;;;;;;;;;4990623;28;20274;-68
2022/12/20 00:42:05;;;;;;;3.37;1.63;;;;;;;;;;4990251;28;20014;-69
2022/12/20 00:44:30;;;;;;;6.10;1.48;;;;;;;;;;4990699;28;20295;-69
2022/12/20 00:46:55;;;;;;;6.00;2.17;;;;;;;;;;4993927;28;20049;-68
2022/12/20 00:49:20;;;;;;;1.27;0.88;;;;;;;;;;4989171;28;20758;-69
2022/12/20 00:51:45;;;;;;;3.10;1.48;;;;;;;;;;4991303;28;20437;-70
2022/12/20 00:54:11;;;;;;;2.93;1.47;;;;;;;;;;4990825;28;20475;-70
2022/12/20 00:56:36;;;;;;;2.53;0.97;;;;;;;;;;4991411;28;20282;-70
2022/12/20 00:59:01;;;;;;;5.35;1.52;;;;;;;;;;4991346;28;20323;-70
2022/12/20 01:01:30;;;;;;;4.90;2.17;;;;;;;;;;4991018;28;20481;-68
2022/12/20 01:03:56;;;;;;;8.57;2.50;;;;;;;;;;4987778;28;20049;-70
2022/12/20 01:06:22;;;;;;;6.07;2.23;;;;;;;;;;4991021;28;20026;-69
2022/12/20 01:08:47;;;;;;;6.05;2.20;;;;;;;;;;4989350;28;20288;-68
2022/12/20 01:11:22;;;;;;;6.65;2.28;;;;;;;;;;4989622;28;20455;-70
2022/12/20 01:13:49;;;;;;;9.27;2.55;;;;;;;;;;4988305;28;20105;-69
2022/12/20 01:16:23;;;;;;;5.15;2.42;;;;;;;;;;4993044;28;20097;-69
2022/12/20 01:18:48;;;;;;;5.25;2.13;;;;;;;;;;4994859;28;20098;-69
2022/12/20 01:21:15;;;;;;;10.63;2.50;;;;;;;;;;4994395;28;20049;-70
2022/12/20 01:23:41;;;;;;;4.53;2.53;;;;;;;;;;4992561;28;20398;-70
2022/12/20 01:26:10;;;;;;;4.60;2.45;;;;;;;;;;4993493;28;20050;-70
2022/12/20 01:28:36;;;;;;;2.38;1.42;;;;;;;;;;4993116;28;20019;-69
2022/12/20 01:31:04;;;;;;;2.25;1.20;;;;;;;;;;4994174;28;20068;-70
2022/12/20 01:33:29;;;;;;;2.25;1.23;;;;;;;;;;4993151;28;20062;-70
2022/12/20 01:35:54;;;;;;;3.08;1.90;;;;;;;;;;4994447;28;20046;-70
2022/12/20 01:38:20;;;;;;;8.38;2.25;;;;;;;;;;4992511;28;20064;-70
2022/12/20 01:40:45;;;;;;;2.63;1.50;;;;;;;;;;4994310;28;20277;-70
2022/12/20 01:43:11;;;;;;;7.13;1.73;;;;;;;;;;4992819;28;20021;-70
2022/12/20 01:45:36;;;;;;;2.83;1.90;;;;;;;;;;4994209;28;20320;-70
2022/12/20 01:48:01;;;;;;;3.50;2.00;;;;;;;;;;4994087;28;20026;-69
2022/12/20 01:50:27;;;;;;;4.53;1.65;;;;;;;;;;4992391;28;20281;-70
2022/12/20 01:52:52;;;;;;;2.70;1.33;;;;;;;;;;4993822;28;20027;-70
2022/12/20 01:55:25;;;;;;;2.60;1.35;;;;;;;;;;4993211;28;20025;-69
2022/12/20 01:57:53;;;;;;;5.78;2.30;;;;;;;;;;4993956;28;20018;-69
2022/12/20 02:00:19;;;;;;;5.30;2.30;;;;;;;;;;4993382;28;20018;-69
2022/12/20 02:02:45;;;;;;;7.82;2.38;;;;;;;;;;4993295;28;20077;-69
2022/12/20 02:05:13;;;;;;;8.77;2.95;;;;;;;;;;4991689;28;20019;-70
2022/12/20 02:07:38;;;;;;;9.70;2.42;;;;;;;;;;4993491;28;20053;-69
2022/12/20 02:10:04;;;;;;;4.88;2.83;;;;;;;;;;4993599;28;20026;-70
2022/12/20 02:12:38;;;;;;;9.75;3.75;;;;;;;;;;4994343;28;20034;-70
2022/12/20 02:15:32;;;;;;;7.85;2.83;;;;;;;;;;4995843;28;20030;-69
2022/12/20 02:18:19;;;;;;;5.30;2.50;;;;;;;;;;4988305;28;20109;-70
2022/12/20 02:20:59;;;;;;;7.90;2.92;;;;;;;;;;4990057;28;20129;-70
2022/12/20 02:23:34;;;;;;;4.05;1.70;;;;;;;;;;4993627;28;20379;-69
2022/12/20 02:26:02;;;;;;;9.90;3.50;;;;;;;;;;4991496;28;20022;-70
2022/12/20 02:28:30;;;;;;;7.82;3.40;;;;;;;;;;4993179;28;20089;-69
2022/12/20 02:30:56;;;;;;;8.15;2.75;;;;;;;;;;4990975;28;20475;-70
2022/12/20 02:33:24;;;;;;;10.70;2.35;;;;;;;;;;4991125;28;20054;-70
2022/12/20 02:35:49;;;;;;;2.58;1.42;;;;;;;;;;4991800;28;20046;-69
2022/12/20 02:38:28;;;;;;;8.02;2.72;;;;;;;;;;4992981;28;20014;-70
2022/12/20 02:40:56;;;;;;;4.07;2.57;;;;;;;;;;4992850;28;20018;-70
2022/12/20 02:46:07;;;;;;;1.95;1.52;;;;;;;;;;4992931;28;20114;-70
2022/12/20 02:48:33;;;;;;;7.28;3.40;;;;;;;;;;4994314;28;20014;-70
2022/12/20 02:50:59;;;;;;;8.63;3.60;;;;;;;;;;4994118;28;20023;-70
2022/12/20 02:53:24;;;;;;;5.15;2.10;;;;;;;;;;4993366;28;20026;-69
2022/12/20 02:55:52;;;;;;;5.60;2.70;;;;;;;;;;4992142;28;20022;-67
2022/12/20 02:58:25;;;;;;;8.18;3.20;;;;;;;;;;4992051;28;20015;-67
2022/12/20 03:00:52;;;;;;;6.28;2.22;;;;;;;;;;4991619;28;20034;-67
2022/12/20 03:03:23;;;;;;;6.85;2.95;;;;;;;;;;4991132;28;20482;-68
2022/12/20 03:05:50;;;;;;;8.30;2.70;;;;;;;;;;4992121;28;20023;-67
2022/12/20 03:08:15;;;;;;;5.40;2.35;;;;;;;;;;4992634;28;20014;-67
2022/12/20 03:10:40;;;;;;;7.85;2.80;;;;;;;;;;4993859;28;20085;-68
2022/12/20 03:13:05;;;;;;;3.35;2.25;;;;;;;;;;4994083;28;20046;-67
2022/12/20 03:15:31;;;;;;;2.43;1.57;;;;;;;;;;4992409;28;20037;-68
2022/12/20 03:17:56;;;;;;;4.95;1.63;;;;;;;;;;4993522;28;20269;-68
2022/12/20 03:20:21;;;;;;;4.47;2.42;;;;;;;;;;4993046;28;20037;-68
2022/12/20 03:22:46;;;;;;;5.57;2.60;;;;;;;;;;4993242;28;20015;-68
2022/12/20 03:25:12;;;;;;;7.47;3.20;;;;;;;;;;4989964;28;20108;-68
2022/12/20 03:27:37;;;;;;;5.78;1.77;;;;;;;;;;4991892;28;20018;-66
2022/12/20 03:30:03;;;;;;;7.03;2.55;;;;;;;;;;4993025;28;20109;-69
2022/12/20 03:32:28;;;;;;;8.02;2.50;;;;;;;;;;4993801;28;20101;-69
2022/12/20 03:34:53;;;;;;;2.20;1.57;;;;;;;;;;4993250;28;20026;-68
2022/12/20 03:37:18;;;;;;;16.13;2.50;;;;;;;;;;4991723;28;20280;-68
2022/12/20 03:39:44;;;;;;;7.35;2.25;;;;;;;;;;4993085;28;20258;-68
2022/12/20 03:42:09;;;;;;;11.43;2.80;;;;;;;;;;4993420;28;20022;-68
2022/12/20 03:44:34;;;;;;;2.88;1.48;;;;;;;;;;4992689;28;20265;-67
2022/12/20 03:46:59;;;;;;;5.53;1.63;;;;;;;;;;4997045;28;20375;-67
2022/12/20 03:51:52;;;;;;;10.60;3.72;;;;;;;;;;5013941;23;20053;-73
2022/12/20 03:54:17;;;;;;;5.75;2.55;;;;;;;;;;4990418;28;20458;-71
2022/12/20 03:56:42;;;;;;;2.67;1.77;;;;;;;;;;4988186;28;20035;-71
2022/12/20 03:59:07;;;;;;;6.63;2.50;;;;;;;;;;4987343;28;20029;-70
2022/12/20 04:01:35;;;;;;;6.20;2.20;;;;;;;;;;4973343;28;20438;-71
2022/12/20 04:04:01;;;;;;;5.97;2.90;;;;;;;;;;4971077;28;20324;-71
2022/12/20 04:06:26;;;;;;;15.13;3.75;;;;;;;;;;4968934;28;20030;-71
2022/12/20 04:08:51;;;;;;;6.67;3.00;;;;;;;;;;4972076;28;20237;-72
2022/12/20 04:11:16;;;;;;;7.77;3.10;;;;;;;;;;4970830;28;20246;-72
2022/12/20 04:13:45;;;;;;;4.30;1.98;;;;;;;;;;4969997;28;20290;-71
2022/12/20 04:16:11;;;;;;;7.20;3.13;;;;;;;;;;4970799;28;20027;-71
2022/12/20 04:18:36;;;;;;;7.00;3.58;;;;;;;;;;4970775;28;20007;-71
2022/12/20 04:21:03;;;;;;;16.15;2.63;;;;;;;;;;4969916;28;20027;-74
2022/12/20 04:23:29;;;;;;;9.80;1.73;;;;;;;;;;4970621;28;20015;-71
2022/12/20 04:25:54;;;;;;;5.60;2.60;;;;;;;;;;4968158;28;20034;-71
2022/12/20 04:28:19;;;;;;;11.17;3.17;;;;;;;;;;4970774;28;20387;-71
2022/12/20 04:30:44;;;;;;;6.93;3.22;;;;;;;;;;4971018;28;20270;-71
2022/12/20 04:33:09;;;;;;;9.67;3.77;;;;;;;;;;4969425;28;20018;-71
2022/12/20 04:35:35;;;;;;;5.80;2.97;;;;;;;;;;4969849;28;20285;-71
2022/12/20 04:38:00;;;;;;;5.38;2.85;;;;;;;;;;4970743;28;20794;-71
2022/12/20 04:40:26;;;;;;;5.93;3.00;;;;;;;;;;4970868;28;20475;-71
2022/12/20 04:42:51;;;;;;;10.77;3.22;;;;;;;;;;4970857;28;20270;-71
2022/12/20 04:45:16;;;;;;;4.63;2.67;;;;;;;;;;4971026;28;20019;-71
2022/12/20 04:47:41;;;;;;;11.70;3.67;;;;;;;;;;4970344;28;20029;-71
2022/12/20 04:50:07;;;;;;;7.87;2.77;;;;;;;;;;4973224;28;20615;-71
2022/12/20 04:55:16;;;;;;;6.07;2.58;;;;;;;;;;4971965;28;20055;-71
2022/12/20 04:57:41;;;;;;;7.68;3.13;;;;;;;;;;4974375;28;20471;-71
2022/12/20 05:00:06;;;;;;;11.53;2.00;;;;;;;;;;4974340;28;20081;-73
2022/12/20 05:02:31;;;;;;;3.97;2.55;;;;;;;;;;4972646;28;20250;-71
2022/12/20 05:04:57;;;;;;;11.17;3.83;;;;;;;;;;4974259;28;20046;-72
2022/12/20 05:07:22;;;;;;;4.47;2.33;;;;;;;;;;4974433;28;20251;-71
2022/12/20 05:09:47;;;;;;;3.97;2.47;;;;;;;;;;4974376;28;20373;-72
2022/12/20 05:12:12;;;;;;;5.90;2.30;;;;;;;;;;4973846;28;20254;-70
2022/12/20 05:14:37;;;;;;;8.40;3.37;;;;;;;;;;4974087;28;20440;-71
2022/12/20 05:17:02;;;;;;;5.43;3.50;;;;;;;;;;4972987;28;20751;-72
2022/12/20 05:19:28;;;;;;;6.67;3.27;;;;;;;;;;4973692;28;20340;-72
2022/12/20 05:27:38;;;;;;;4.60;2.10;;;;;;;;;;4962719;28;20034;-72
2022/12/20 05:30:04;;;;;;;6.95;2.45;;;;;;;;;;4973364;28;20023;-70
2022/12/20 05:32:29;;;;;;;8.63;2.53;;;;;;;;;;4972039;28;20022;-72
2022/12/20 05:34:54;;;;;;;5.07;2.05;;;;;;;;;;4974252;28;20102;-71
2022/12/20 05:37:19;;;;;;;5.40;2.37;;;;;;;;;;4973724;28;20019;-72
2022/12/20 05:39:44;;;;;;;6.07;2.67;;;;;;;;;;4972657;28;20283;-71
2022/12/20 05:42:10;;;;;;;5.73;2.47;;;;;;;;;;4973141;28;20722;-73
2022/12/20 05:44:35;;;;;;;8.55;3.20;;;;;;;;;;4971156;28;20260;-71
2022/12/20 05:47:00;;;;;;;7.18;3.30;;;;;;;;;;4971076;28;20023;-70
2022/12/20 05:49:26;;;;;;;10.73;2.07;;;;;;;;;;4973253;28;20026;-74
2022/12/20 05:51:51;;;;;;;5.43;2.47;;;;;;;;;;4969565;28;20266;-71
2022/12/20 05:54:16;;;;;;;3.83;2.33;;;;;;;;;;4973884;28;20282;-74
2022/12/20 05:56:41;;;;;;;2.90;1.97;;;;;;;;;;4973888;28;20262;-70
2022/12/20 05:59:06;;;;;;;7.63;2.50;;;;;;;;;;4973380;28;20325;-71
2022/12/20 06:01:32;;;;;;;3.50;2.33;;;;;;;;;;4971967;28;20077;-71
2022/12/20 06:03:57;;;;;;;7.05;1.85;;;;;;;;;;4973068;28;20265;-70
2022/12/20 06:06:22;;;;;;;6.85;2.53;;;;;;;;;;4973157;28;20051;-73
2022/12/20 06:08:48;;;;;;;2.20;1.47;;;;;;;;;;4969189;28;20109;-70
2022/12/20 06:11:13;;;;;;;4.72;2.33;;;;;;;;;;4975575;28;20278;-71
2022/12/20 06:13:38;;;;;;;4.30;1.17;;;;;;;;;;4973018;28;20018;-73
2022/12/20 06:16:04;;;;;;;1.80;1.57;;;;;;;;;;4975883;28;20262;-70
2022/12/20 06:18:29;;;;;;;1.88;1.17;;;;;;;;;;4972858;28;20258;-71
2022/12/20 06:20:54;;;;;;;5.20;1.87;;;;;;;;;;4973028;28;20062;-70
2022/12/20 06:23:19;;;;;;;5.03;2.38;;;;;;;;;;4971981;28;20278;-71
2022/12/20 06:25:45;;;;;;;3.88;1.90;;;;;;;;;;4972303;28;20085;-71
2022/12/20 06:28:10;;;;;;;3.63;1.63;;;;;;;;;;4974259;28;20260;-71
2022/12/20 06:30:35;;;;;;;4.07;1.95;;;;;;;;;;4972508;28;20014;-71
2022/12/20 06:33:01;;;;;;;3.63;1.85;;;;;;;;;;4972381;28;20030;-71
2022/12/20 06:35:26;;;;;;;10.55;3.45;;;;;;;;;;4972043;28;20029;-71
2022/12/20 06:37:52;;;;;;;7.32;2.30;;;;;;;;;;4972265;28;20538;-71
2022/12/20 06:40:17;;;;;;;7.00;2.78;;;;;;;;;;4972713;28;20070;-75
2022/12/20 06:42:42;;;;;;;8.20;3.75;;;;;;;;;;4971909;28;20050;-71
2022/12/20 06:45:08;;;;;;;11.55;3.15;;;;;;;;;;4971214;28;20506;-73
2022/12/20 06:47:33;;;;;;;7.45;2.25;;;;;;;;;;4971215;28;20019;-70
2022/12/20 06:49:58;;;;;;;5.10;2.57;;;;;;;;;;4972244;28;20031;-70
2022/12/20 06:52:23;;;;;;;4.93;2.72;;;;;;;;;;4972511;28;20243;-70
2022/12/20 06:54:49;;;;;;;4.38;2.13;;;;;;;;;;4971602;28;20031;-70
2022/12/20 06:57:14;;;;;;;5.07;3.28;;;;;;;;;;4972483;28;20018;-70
2022/12/20 06:59:39;;;;;;;5.63;2.58;;;;;;;;;;4971470;28;20046;-70
2022/12/20 07:02:04;;;;;;;3.93;2.33;;;;;;;;;;4972087;28;20018;-72
2022/12/20 07:04:29;;;;;;;6.43;3.03;;;;;;;;;;4973630;28;20290;-71
2022/12/20 07:06:56;;;;;;;7.23;3.07;;;;;;;;;;4972565;28;20268;-70
2022/12/20 07:09:21;;;;;;;7.68;2.63;;;;;;;;;;4972061;28;20258;-73
2022/12/20 07:11:46;;;;;;;5.22;3.08;;;;;;;;;;4971225;28;20439;-70
2022/12/20 07:14:11;;;;;;;6.27;2.40;;;;;;;;;;4969918;28;20049;-71
2022/12/20 07:16:36;;;;;;;7.13;2.90;;;;;;;;;;4969795;28;20286;-70
2022/12/20 07:19:02;;;;;;;4.33;2.33;;;;;;;;;;4971341;28;20313;-70
2022/12/20 07:21:27;;;;;;;5.07;2.53;;;;;;;;;;4971653;28;20711;-71
2022/12/20 07:23:53;;;;;;;6.65;1.70;;;;;;;;;;4971990;28;20035;-70
2022/12/20 07:26:19;;;;;;;7.57;3.10;;;;;;;;;;4968660;28;20030;-70
2022/12/20 07:28:44;;;;;;;7.07;2.90;;;;;;;;;;4971786;28;20369;-70
2022/12/20 07:31:09;;;;;;;6.50;2.83;;;;;;;;;;4969659;28;20027;-72
2022/12/20 07:33:36;;;;;;;7.18;2.65;;;;;;;;;;4967633;28;20801;-72
2022/12/20 07:36:02;;;;;;;7.38;2.80;;;;;;;;;;4971442;28;20026;-71
2022/12/20 07:38:28;;;;;;;4.28;1.95;;;;;;;;;;4971314;28;20015;-70
2022/12/20 07:40:53;;;;;;;9.10;2.50;;;;;;;;;;4971222;28;20162;-72
2022/12/20 07:43:18;;;;;;;5.93;2.30;;;;;;;;;;4971523;28;20143;-70
2022/12/20 07:45:43;;;;;;;9.00;2.83;;;;;;;;;;4969633;28;20479;-72
2022/12/20 07:48:08;;;;;;;7.10;2.03;;;;;;;;;;4974841;28;20340;-71
2022/12/20 07:50:34;;;;;;;4.40;1.57;;;;;;;;;;4967559;28;20630;-72
2022/12/20 07:53:00;;;;;;;3.28;1.95;;;;;;;;;;4969531;28;20332;-71
2022/12/20 07:55:26;;;;;;;4.05;1.80;;;;;;;;;;4971181;28;20073;-72
2022/12/20 07:57:53;;;;;;;7.03;1.77;;;;;;;;;;4971337;28;20027;-70
2022/12/20 08:00:18;;;;;;;5.15;1.83;;;;;;;;;;4970231;28;20073;-72
2022/12/20 08:02:47;;;;;;;6.20;1.35;;;;;;;;;;4971324;28;20019;-70
2022/12/20 08:05:12;;;;;;;6.82;1.35;;;;;;;;;;4970143;28;20619;-73
2022/12/20 08:07:39;;;;;;;6.03;1.58;;;;;;;;;;4970950;28;20110;-70
2022/12/20 08:10:05;;;;;;;10.82;2.47;;;;;;;;;;4971129;28;20375;-71
2022/12/20 08:12:31;;;;;;;3.75;2.08;;;;;;;;;;4971098;28;20685;-71
2022/12/20 08:14:57;;;;;;;6.30;2.25;;;;;;;;;;4971290;28;20023;-71
2022/12/20 08:17:22;;;;;;;7.32;2.88;;;;;;;;;;4971030;28;20065;-71
2022/12/20 08:19:50;;;;;;;3.80;2.05;;;;;;;;;;4969677;28;20027;-71
2022/12/20 08:22:15;;;;;;;5.40;2.35;;;;;;;;;;4971225;28;20216;-71
2022/12/20 08:24:40;;;;;;;4.87;2.63;;;;;;;;;;4971639;28;20030;-70
2022/12/20 08:27:06;;;;;;;5.37;1.93;;;;;;;;;;4974931;28;20262;-71
2022/12/20 08:29:31;;;;;;;6.60;2.47;;;;;;;;;;4973039;28;20330;-70
2022/12/20 08:31:56;;;;;;;11.55;3.17;;;;;;;;;;4972544;28;20315;-71
2022/12/20 08:34:21;;;;;;;8.60;3.15;;;;;;;;;;4975235;28;20019;-72
2022/12/20 08:36:46;;;;;;;6.63;2.50;;;;;;;;;;4974881;28;20098;-71
2022/12/20 08:39:11;;;;;;;2.57;1.40;;;;;;;;;;4974997;28;20619;-71
2022/12/20 08:41:37;;;;;;;5.70;2.23;;;;;;;;;;4974315;28;20297;-71
2022/12/20 08:44:03;;;;;;;5.80;2.90;;;;;;;;;;4972679;28;20282;-71
2022/12/20 08:46:28;;;;;;;7.38;2.15;;;;;;;;;;4974589;28;20023;-71
2022/12/20 08:48:53;;;;;;;9.77;2.50;;;;;;;;;;4974758;28;20018;-72
2022/12/20 08:51:18;;;;;;;6.27;2.27;;;;;;;;;;4974420;28;20426;-71
2022/12/20 08:53:44;;;;;;;3.45;1.63;;;;;;;;;;4974629;28;20263;-72
2022/12/20 08:56:13;;;;;;;11.98;3.40;;;;;;;;;;4975035;28;20088;-71
2022/12/20 08:58:39;;;;;;;6.03;2.83;;;;;;;;;;4973215;28;20015;-72
2022/12/20 09:01:05;;;;;;;2.95;1.42;;;;;;;;;;4974223;28;20081;-72
2022/12/20 09:03:31;;;;;;;2.50;1.65;;;;;;;;;;4974936;28;20014;-73
2022/12/20 09:05:57;;;;;;;8.55;2.25;;;;;;;;;;4974532;28;20123;-71
2022/12/20 09:08:22;;;;;;;8.80;2.55;;;;;;;;;;4974566;28;20025;-70
2022/12/20 09:10:47;;;;;;;6.82;2.88;;;;;;;;;;4973812;28;20053;-71
2022/12/20 09:13:12;;;;;;;7.10;2.50;;;;;;;;;;4973010;28;20015;-70
2022/12/20 09:15:38;;;;;;;5.70;1.70;;;;;;;;;;4974333;28;20747;-71
2022/12/20 09:18:03;;;;;;;4.25;1.58;;;;;;;;;;4973818;28;20265;-72
2022/12/20 09:20:28;;;;;;;6.80;2.42;;;;;;;;;;4973810;28;20509;-71
2022/12/20 09:22:54;;;;;;;3.00;1.90;;;;;;;;;;4973816;28;20101;-71
2022/12/20 09:25:19;;;;;;;1.45;1.15;;;;;;;;;;4973281;28;20039;-70
2022/12/20 09:27:44;;;;;;;5.35;2.30;;;;;;;;;;4973412;28;20023;-71
2022/12/20 09:30:09;;;;;;;3.27;2.23;;;;;;;;;;4972512;28;20065;-72
2022/12/20 09:32:34;;;;;;;4.55;2.00;;;;;;;;;;4973812;28;20294;-72
2022/12/20 09:35:00;;;;;;;3.60;1.23;;;;;;;;;;4973300;28;20157;-71
2022/12/20 09:37:28;;;;;;;2.50;1.48;;;;;;;;;;4973929;28;20254;-71
2022/12/20 09:39:53;;;;;;;5.25;1.50;;;;;;;;;;4972732;28;20026;-71
2022/12/20 09:42:21;;;;;;;6.20;2.63;;;;;;;;;;4972587;28;20015;-71
2022/12/20 09:44:47;;;;;;;10.00;1.85;;;;;;;;;;4973138;28;20310;-72
2022/12/20 09:47:17;;;;;;;6.47;2.00;;;;;;;;;;4975936;28;20058;-73
2022/12/20 09:49:44;;;;;;;5.00;2.97;;;;;;;;;;4971968;28;20026;-71
2022/12/20 09:52:32;;;;;;;5.10;2.03;;;;;;;;;;5019368;23;20143;-70
2022/12/20 09:55:03;;;;;;;6.47;2.00;;;;;;;;;;5010060;28;20018;-70
2022/12/20 09:57:31;;;;;;;6.57;2.47;;;;;;;;;;5009461;28;20010;-70
2022/12/20 09:59:57;;;;;;;4.85;2.05;;;;;;;;;;5009590;28;20021;-67
2022/12/20 10:02:24;;;;;;;6.07;1.48;;;;;;;;;;4989049;28;20499;-70
2022/12/20 10:04:49;;;;;;;3.20;1.08;;;;;;;;;;4989216;28;20022;-70
2022/12/20 10:07:17;;;;;;;2.95;1.30;;;;;;;;;;4989679;28;20025;-70
2022/12/20 10:09:48;;;;;;;9.90;1.85;;;;;;;;;;4990886;28;20103;-70
2022/12/20 10:12:26;;;;;;;4.50;1.98;;;;;;;;;;4989862;28;20018;-70
2022/12/20 10:15:01;;;;;;;7.20;1.58;;;;;;;;;;4989312;28;20029;-70
2022/12/20 10:17:36;;;;;;;7.65;1.60;;;;;;;;;;4989102;28;20506;-70
2022/12/20 10:20:01;;;;;;;3.63;1.55;;;;;;;;;;5003977;28;20023;-70
2022/12/20 10:22:39;;;;;;;6.55;1.90;;;;;;;;;;4990075;28;20081;-70
2022/12/20 10:25:12;;;;;;;5.28;1.20;;;;;;;;;;4990285;28;20530;-70
2022/12/20 10:27:42;;;;;;;1.45;0.90;;;;;;;;;;4989320;28;20038;-70
2022/12/20 10:30:14;;;;;;;4.57;1.80;;;;;;;;;;4988850;28;20370;-70
2022/12/20 10:32:40;;;;;;;2.38;1.15;;;;;;;;;;4987049;28;20102;-71
2022/12/20 10:35:09;;;;;;;7.63;3.00;;;;;;;;;;4987677;28;20050;-68
2022/12/20 10:37:34;;;;;;;4.53;2.35;;;;;;;;;;4991347;28;20014;-68
2022/12/20 10:39:59;;;;;;;3.03;1.43;;;;;;;;;;4988103;28;20037;-68
2022/12/20 10:42:29;;;;;;;7.13;2.33;;;;;;;;;;4988514;28;20257;-68
2022/12/20 10:44:54;;;;;;;13.15;1.40;;;;;;;;;;4988272;28;20697;-68
2022/12/20 10:47:26;;;;;;;4.65;2.08;;;;;;;;;;4986940;28;20093;-68
2022/12/20 10:50:06;;;;;;;4.38;2.03;;;;;;;;;;4989766;28;20068;-68
2022/12/20 10:52:31;;;;;;;6.00;1.87;;;;;;;;;;4989520;28;20034;-68
2022/12/20 10:54:56;;;;;;;5.20;1.83;;;;;;;;;;4988010;28;20282;-68
2022/12/20 10:57:24;;;;;;;4.85;2.13;;;;;;;;;;4987410;28;20619;-68
2022/12/20 10:59:49;;;;;;;3.58;1.73;;;;;;;;;;4986873;28;20050;-68
2022/12/20 11:02:25;;;;;;;5.20;2.60;;;;;;;;;;4987174;28;20062;-69
2022/12/20 11:05:00;;;;;;;3.50;1.80;;;;;;;;;;4990802;28;20053;-70
2022/12/20 11:07:28;;;;;;;4.63;1.52;;;;;;;;;;4988852;28;20386;-69
2022/12/20 11:09:55;;;;;;;7.88;1.85;;;;;;;;;;4986957;28;20042;-69
2022/12/20 11:12:20;;;;;;;6.70;2.10;;;;;;;;;;4988061;28;20017;-69
2022/12/20 11:14:45;;;;;;;4.23;1.60;;;;;;;;;;4991331;28;20030;-69
2022/12/20 11:17:20;;;;;;;2.95;2.00;;;;;;;;;;4987350;28;20269;-69
2022/12/20 11:20:04;;;;;;;1.52;1.23;;;;;;;;;;4987442;28;20535;-69
2022/12/20 11:22:37;;;;;;;7.40;1.75;;;;;;;;;;4989549;28;20017;-69
2022/12/20 11:25:02;;;;;;;5.38;1.80;;;;;;;;;;4987392;28;20022;-69
2022/12/20 11:27:50;;;;;;;2.22;1.13;;;;;;;;;;4985676;28;20021;-69
2022/12/20 11:30:31;;;;;;;2.30;1.25;;;;;;;;;;4984679;28;20097;-69
2022/12/20 11:33:06;;;;;;;1.85;1.20;;;;;;;;;;4990389;28;20434;-69
2022/12/20 11:35:40;;;;;;;4.07;1.98;;;;;;;;;;4985122;28;20018;-69
2022/12/20 11:38:09;;;;;;;2.90;1.00;;;;;;;;;;4989660;28;20025;-69
2022/12/20 11:40:37;;;;;;;6.78;1.88;;;;;;;;;;4984580;28;20011;-69
2022/12/20 11:43:02;;;;;;;1.52;0.90;;;;;;;;;;4985785;28;20724;-69
2022/12/20 11:45:46;;;;;;;1.93;1.07;;;;;;;;;;4990920;28;20105;-69
2022/12/20 11:48:24;;;;;;;3.05;1.80;;;;;;;;;;4979688;28;20258;-69
2022/12/20 11:51:04;;;;;;;2.22;1.60;;;;;;;;;;4986187;28;20092;-69
2022/12/20 11:53:33;;;;;;;2.38;1.35;;;;;;;;;;4989062;28;20030;-69
2022/12/20 11:56:00;;;;;;;4.68;1.90;;;;;;;;;;4981099;28;20023;-69
2022/12/20 11:58:29;;;;;;;3.58;2.03;;;;;;;;;;4985189;28;20348;-69
2022/12/20 12:01:16;;;;;;;7.18;1.80;;;;;;;;;;4983691;28;20486;-69
2022/12/20 12:03:47;;;;;;;4.15;1.10;;;;;;;;;;4985766;28;20091;-70
2022/12/20 12:06:39;;;;;;;4.97;1.23;;;;;;;;;;4986479;28;20045;-69
2022/12/20 12:09:04;;;;;;;3.97;1.67;;;;;;;;;;4985327;28;20117;-69
2022/12/20 12:11:31;;;;;;;3.05;1.42;;;;;;;;;;4986680;28;20097;-69
2022/12/20 12:13:58;;;;;;;5.78;2.00;;;;;;;;;;4987213;28;20022;-69
2022/12/20 12:16:26;;;;;;;7.90;1.90;;;;;;;;;;4987719;28;20025;-69
2022/12/20 12:18:51;;;;;;;6.00;1.42;;;;;;;;;;4984406;28;20073;-69
2022/12/20 12:21:22;;;;;;;2.13;1.05;;;;;;;;;;4985988;28;20015;-69
2022/12/20 12:23:51;;;;;;;4.80;1.80;;;;;;;;;;4986767;28;20131;-69
2022/12/20 12:26:21;;;;;;;5.65;1.75;;;;;;;;;;4988662;28;20430;-69
2022/12/20 12:28:49;;;;;;;5.13;2.22;;;;;;;;;;4989271;28;20018;-69
2022/12/20 12:31:18;;;;;;;9.77;1.52;;;;;;;;;;4987694;28;20505;-69
2022/12/20 12:33:52;;;;;;;4.25;1.30;;;;;;;;;;4982752;28;20023;-69
2022/12/20 12:36:36;;;;;;;3.20;1.50;;;;;;;;;;4985508;28;20236;-69
2022/12/20 12:39:10;;;;;;;3.75;1.60;;;;;;;;;;4985014;28;20014;-69
2022/12/20 12:41:35;;;;;;;5.22;2.08;;;;;;;;;;4983272;28;20014;-69
2022/12/20 12:44:04;;;;;;;5.17;1.40;;;;;;;;;;4989424;28;20505;-69
2022/12/20 12:46:31;;;;;;;10.13;2.47;;;;;;;;;;4986138;28;20756;-69
2022/12/20 12:49:10;;;;;;;3.85;1.58;;;;;;;;;;4983959;28;20050;-69
2022/12/20 12:51:37;;;;;;;8.55;2.58;;;;;;;;;;4982041;28;20037;-69
2022/12/20 12:54:08;;;;;;;8.45;1.90;;;;;;;;;;4984935;28;20030;-69
2022/12/20 12:56:46;;;;;;;11.77;2.35;;;;;;;;;;4981819;28;20375;-69
2022/12/20 12:59:12;;;;;;;8.63;2.53;;;;;;;;;;4989699;28;20010;-69
2022/12/20 13:01:40;;;;;;;6.72;2.58;;;;;;;;;;4987075;28;20019;-69
2022/12/20 13:04:18;;;;;;;4.38;2.20;;;;;;;;;;4999391;28;20117;-69
2022/12/20 13:06:53;;;;;;;5.28;2.25;;;;;;;;;;4984334;28;20449;-69
2022/12/20 13:09:24;;;;;;;4.68;2.33;;;;;;;;;;4984405;28;20388;-69
2022/12/20 13:11:51;;;;;;;4.00;2.22;;;;;;;;;;4990661;28;20098;-69
2022/12/20 13:14:16;;;;;;;9.13;2.22;;;;;;;;;;4990644;28;20105;-69
2022/12/20 13:16:42;;;;;;;8.18;2.38;;;;;;;;;;4985106;28;20125;-68
2022/12/20 13:19:15;;;;;;;5.53;2.47;;;;;;;;;;4987780;28;20101;-68
2022/12/20 13:21:42;;;;;;;12.38;2.55;;;;;;;;;;4984562;28;20483;-69
2022/12/20 13:24:26;;;;;;;5.05;2.42;;;;;;;;;;4988363;28;20032;-68
2022/12/20 13:26:52;;;;;;;4.80;2.15;;;;;;;;;;4992714;28;20034;-69
2022/12/20 13:29:22;;;;;;;10.85;2.60;;;;;;;;;;4987812;28;20185;-69
2022/12/20 13:31:48;;;;;;;7.82;2.55;;;;;;;;;;4984625;28;20555;-68
2022/12/20 13:34:33;;;;;;;6.70;2.40;;;;;;;;;;4990234;28;20118;-69
2022/12/20 13:36:59;;;;;;;4.97;2.05;;;;;;;;;;4985929;28;20391;-69
2022/12/20 13:39:25;;;;;;;5.40;1.85;;;;;;;;;;4988803;28;20101;-68
2022/12/20 13:41:52;;;;;;;5.85;2.58;;;;;;;;;;4991030;28;20027;-69
2022/12/20 13:44:32;;;;;;;2.70;1.10;;;;;;;;;;4986671;28;20018;-69
2022/12/20 13:47:26;;;;;;;2.03;1.67;;;;;;;;;;4985639;28;20498;-68
2022/12/20 13:49:52;;;;;;;14.07;1.42;;;;;;;;;;4975994;28;20451;-69
2022/12/20 13:52:29;;;;;;;13.27;2.08;;;;;;;;;;4985918;28;20065;-69
2022/12/20 13:54:59;;;;;;;2.95;2.13;;;;;;;;;;4988162;28;20442;-69
2022/12/20 13:57:29;;;;;;;3.45;1.73;;;;;;;;;;4986102;28;20017;-69
2022/12/20 13:59:55;;;;;;;6.15;2.28;;;;;;;;;;4990682;28;20084;-69
2022/12/20 14:02:23;;;;;;;9.35;2.05;;;;;;;;;;4990728;28;20026;-69
2022/12/20 14:05:11;;;;;;;4.30;1.67;;;;;;;;;;4983703;28;20023;-68
2022/12/20 14:07:36;;;;;;;5.85;1.92;;;;;;;;;;4983593;28;20035;-69
2022/12/20 14:10:03;;;;;;;6.78;2.80;;;;;;;;;;4984924;28;21427;-69
2022/12/20 14:12:30;;;;;;;6.63;2.53;;;;;;;;;;4982989;28;20025;-69
2022/12/20 14:14:55;;;;;;;12.40;2.42;;;;;;;;;;4984062;28;20349;-69
2022/12/20 14:17:25;;;;;;;10.07;3.17;;;;;;;;;;4985973;28;20006;-70
2022/12/20 14:20:06;;;;;;;8.40;2.92;;;;;;;;;;4983216;28;20111;-70
2022/12/20 14:22:32;;;;;;;4.50;2.22;;;;;;;;;;4982021;28;20097;-69
2022/12/20 14:24:58;;;;;;;5.55;2.30;;;;;;;;;;4989096;28;20125;-70
2022/12/20 14:27:24;;;;;;;4.55;2.08;;;;;;;;;;4988152;28;20409;-70
2022/12/20 14:29:50;;;;;;;4.15;2.10;;;;;;;;;;4992065;28;20076;-70
2022/12/20 14:32:17;;;;;;;2.72;1.55;;;;;;;;;;4985340;28;20105;-70
2022/12/20 14:34:42;;;;;;;5.50;2.40;;;;;;;;;;4981854;28;20015;-70
2022/12/20 14:37:37;;;;;;;7.10;2.25;;;;;;;;;;4985098;28;20018;-70
2022/12/20 14:40:09;;;;;;;10.35;2.72;;;;;;;;;;4979024;28;20400;-70
2022/12/20 14:42:35;;;;;;;10.52;2.92;;;;;;;;;;4991429;28;20085;-71
2022/12/20 14:45:01;;;;;;;7.85;2.97;;;;;;;;;;4988064;28;20050;-70
2022/12/20 14:47:27;;;;;;;10.90;3.00;;;;;;;;;;4983750;28;20046;-70
2022/12/20 14:49:59;;;;;;;8.75;2.72;;;;;;;;;;4982151;28;20035;-70
2022/12/20 14:52:32;;;;;;;7.55;2.65;;;;;;;;;;4986856;28;20255;-70
2022/12/20 14:54:59;;;;;;;8.18;2.45;;;;;;;;;;4988856;28;20026;-69
2022/12/20 14:57:33;;;;;;;4.15;1.80;;;;;;;;;;4991288;28;20045;-68